createdAt,value
2023-10-24T00:01:48.997Z,10.09
2023-10-24T00:04:17.283Z,10.04
2023-10-24T00:06:46.763Z,10.04
2023-10-24T00:09:14.831Z,9.95
2023-10-24T00:11:42.838Z,9.98
2023-10-24T00:14:10.847Z,10.07
2023-10-24T00:16:38.992Z,9.95
2023-10-24T00:19:07.116Z,9.92
2023-10-24T00:21:35.276Z,9.99
2023-10-24T00:24:05.079Z,9.98
2023-10-24T00:26:33.102Z,10.04
2023-10-24T00:29:01.120Z,10.07
2023-10-24T00:31:29.261Z,10.03
2023-10-24T00:33:57.342Z,10.08
2023-10-24T00:36:25.387Z,10.08
2023-10-24T00:38:53.427Z,10.08
2023-10-24T00:41:22.835Z,10.02
2023-10-24T00:43:50.895Z,10.04
2023-10-24T00:46:19.252Z,10.06
2023-10-24T00:48:47.437Z,10.07
2023-10-24T00:51:15.677Z,10.02
2023-10-24T00:53:44.820Z,9.95
2023-10-24T00:56:14.272Z,9.94
2023-10-24T00:58:45.058Z,9.96
2023-10-24T01:01:15.353Z,9.84
2023-10-24T01:03:45.327Z,9.90
2023-10-24T01:06:14.137Z,9.97
2023-10-24T01:08:42.242Z,9.73
2023-10-24T01:11:10.556Z,9.91
2023-10-24T01:13:38.833Z,9.93
2023-10-24T01:16:08.471Z,9.93
2023-10-24T01:18:36.616Z,9.92
2023-10-24T01:21:06.130Z,9.99
2023-10-24T01:23:35.612Z,9.95
2023-10-24T01:26:05.069Z,10.01
2023-10-24T01:28:33.379Z,9.93
2023-10-24T01:31:01.577Z,10.03
2023-10-24T01:33:30.804Z,9.88
2023-10-24T01:35:58.884Z,10.04
2023-10-24T01:38:27.530Z,10.01
2023-10-24T01:40:56.968Z,10.06
2023-10-24T01:43:25.144Z,10.04
2023-10-24T01:45:53.254Z,9.93
2023-10-24T01:48:21.562Z,10.10
2023-10-24T01:50:48.859Z,10.23
2023-10-24T01:53:16.872Z,10.43
2023-10-24T01:55:45.024Z,10.41
2023-10-24T01:58:14.461Z,10.76
2023-10-24T02:00:42.573Z,10.80
2023-10-24T02:03:10.681Z,10.67
2023-10-24T02:05:39.992Z,11.01
2023-10-24T02:08:08.364Z,11.15
2023-10-24T02:10:36.432Z,11.20
2023-10-24T02:13:04.534Z,11.30
2023-10-24T02:15:33.967Z,11.37
2023-10-24T02:18:02.047Z,11.33
2023-10-24T02:20:30.125Z,11.44
2023-10-24T02:22:58.231Z,11.42
2023-10-24T02:25:26.709Z,11.51
2023-10-24T02:27:54.947Z,11.57
2023-10-24T02:30:23.729Z,11.58
2023-10-24T02:32:53.216Z,11.55
2023-10-24T02:35:21.222Z,11.72
2023-10-24T02:37:49.347Z,11.77
2023-10-24T02:40:17.497Z,11.75
2023-10-24T02:42:45.563Z,11.79
2023-10-24T02:45:13.580Z,11.75
2023-10-24T02:47:41.687Z,11.92
2023-10-24T02:50:11.606Z,11.90
2023-10-24T02:52:39.787Z,11.89
2023-10-24T02:55:10.223Z,11.90
2023-10-24T02:57:38.360Z,11.90
2023-10-24T03:00:08.082Z,11.83
2023-10-24T03:02:36.174Z,11.76
2023-10-24T03:05:04.257Z,11.78
2023-10-24T03:07:33.808Z,11.73
2023-10-24T03:10:01.913Z,11.64
2023-10-24T03:12:29.961Z,11.71
2023-10-24T03:14:58.016Z,11.89
2023-10-24T03:17:27.802Z,11.97
2023-10-24T03:19:56.081Z,12.03
2023-10-24T03:22:24.394Z,12.06
2023-10-24T03:24:53.960Z,12.02
2023-10-24T03:27:22.093Z,12.03
2023-10-24T03:29:50.313Z,12.08
2023-10-24T03:32:18.328Z,12.24
2023-10-24T03:34:46.400Z,12.14
2023-10-24T03:37:14.637Z,12.24
2023-10-24T03:39:42.746Z,12.22
2023-10-24T03:42:14.898Z,12.37
2023-10-24T03:44:43.206Z,12.10
2023-10-24T03:47:11.464Z,12.12
2023-10-24T03:49:39.741Z,12.11
2023-10-24T03:52:08.253Z,12.26
2023-10-24T03:54:36.297Z,12.33
2023-10-24T03:57:04.799Z,12.32
2023-10-24T03:59:34.230Z,12.36
2023-10-24T04:02:02.274Z,12.38
2023-10-24T04:04:32.309Z,12.36
2023-10-24T04:07:00.928Z,12.28
2023-10-24T04:09:38.757Z,12.36
2023-10-24T04:12:08.090Z,12.17
2023-10-24T04:14:36.564Z,12.21
2023-10-24T04:17:04.987Z,12.21
2023-10-24T04:19:33.150Z,12.12
2023-10-24T04:22:01.343Z,12.05
2023-10-24T04:24:29.379Z,12.09
2023-10-24T04:26:57.444Z,12.06
2023-10-24T04:29:25.690Z,12.02
2023-10-24T04:31:55.107Z,12.05
2023-10-24T04:34:23.163Z,11.90
2023-10-24T04:36:51.315Z,11.95
2023-10-24T04:39:19.472Z,12.03
2023-10-24T04:41:49.695Z,11.99
2023-10-24T04:44:17.713Z,11.95
2023-10-24T04:46:45.790Z,11.98
2023-10-24T04:49:17.280Z,11.98
2023-10-24T04:51:45.561Z,11.91
2023-10-24T04:54:13.660Z,12.08
2023-10-24T04:56:41.807Z,12.09
2023-10-24T04:59:09.857Z,12.28
2023-10-24T05:01:40.041Z,12.33
2023-10-24T05:04:08.397Z,12.36
2023-10-24T05:06:37.904Z,12.08
2023-10-24T05:09:07.542Z,12.13
2023-10-24T05:11:37.330Z,11.99
2023-10-24T05:14:05.417Z,12.11
2023-10-24T05:16:33.914Z,11.95
2023-10-24T05:19:02.068Z,12.05
2023-10-24T05:21:30.104Z,12.02
2023-10-24T05:24:00.267Z,11.99
2023-10-24T05:26:28.361Z,11.99
2023-10-24T05:28:56.558Z,11.94
2023-10-24T05:31:24.744Z,11.90
2023-10-24T05:33:52.864Z,11.84
2023-10-24T05:36:20.948Z,11.74
2023-10-24T05:38:49.036Z,11.83
2023-10-24T05:41:18.499Z,11.78
2023-10-24T05:43:46.646Z,11.77
2023-10-24T05:46:15.277Z,11.76
2023-10-24T05:48:43.351Z,11.78
2023-10-24T05:51:11.902Z,11.76
2023-10-24T05:53:39.944Z,11.81
2023-10-24T05:56:08.845Z,11.72
2023-10-24T05:58:38.349Z,11.75
2023-10-24T06:01:07.084Z,11.75
2023-10-24T06:03:35.288Z,11.73
2023-10-24T06:06:03.462Z,11.77
2023-10-24T06:08:31.717Z,11.68
2023-10-24T06:11:00.497Z,11.59
2023-10-24T06:13:28.958Z,11.50
2023-10-24T06:16:08.329Z,11.71
2023-10-24T06:18:36.452Z,11.68
2023-10-24T06:21:08.702Z,11.82
2023-10-24T06:23:39.196Z,11.82
2023-10-24T06:26:14.475Z,11.79
2023-10-24T06:28:42.568Z,11.71
2023-10-24T06:31:12.205Z,11.79
2023-10-24T06:33:41.797Z,11.79
2023-10-24T06:36:10.696Z,11.79
2023-10-24T06:38:38.770Z,11.74
2023-10-24T06:41:09.249Z,11.73
2023-10-24T06:43:37.654Z,11.63
2023-10-24T06:46:06.755Z,11.66
2023-10-24T06:48:36.808Z,11.76
2023-10-24T06:51:05.027Z,11.88
2023-10-24T06:53:33.086Z,11.93
2023-10-24T06:56:01.789Z,11.95
2023-10-24T06:58:30.476Z,12.07
2023-10-24T07:00:58.608Z,12.06
2023-10-24T07:03:26.707Z,12.12
2023-10-24T07:05:56.872Z,12.13
2023-10-24T07:08:25.212Z,11.89
2023-10-24T07:10:53.319Z,11.86
2023-10-24T07:13:21.663Z,11.96
2023-10-24T07:15:50.343Z,11.94
2023-10-24T07:18:18.899Z,11.78
2023-10-24T07:20:47.276Z,11.86
2023-10-24T07:27:16.560Z,11.68
2023-10-24T07:29:44.733Z,11.86
2023-10-24T07:32:13.100Z,11.66
2023-10-24T07:34:42.959Z,11.75
2023-10-24T07:37:11.763Z,11.81
2023-10-24T07:39:40.293Z,12.02
2023-10-24T07:42:10.316Z,11.88
2023-10-24T07:44:40.528Z,11.99
2023-10-24T07:47:09.351Z,12.14
2023-10-24T07:49:37.758Z,11.91
2023-10-24T07:52:06.613Z,12.14
2023-10-24T07:54:34.833Z,11.98
2023-10-24T07:57:05.859Z,11.89
2023-10-24T07:59:35.419Z,11.95
2023-10-24T08:02:05.187Z,12.00
2023-10-24T08:04:33.649Z,11.86
2023-10-24T08:07:03.324Z,12.11
2023-10-24T08:09:31.797Z,11.96
2023-10-24T08:12:01.088Z,12.00
2023-10-24T08:14:29.418Z,11.92
2023-10-24T08:16:59.608Z,12.07
2023-10-24T08:19:29.338Z,12.04
2023-10-24T08:21:57.565Z,12.09
2023-10-24T08:24:25.799Z,12.01
2023-10-24T08:27:09.968Z,12.14
2023-10-24T08:29:40.635Z,12.20
2023-10-24T08:32:14.474Z,12.06
2023-10-24T08:34:45.598Z,11.94
2023-10-24T08:37:14.397Z,12.21
2023-10-24T08:39:42.794Z,12.07
2023-10-24T08:42:13.434Z,12.03
2023-10-24T08:44:43.210Z,12.27
2023-10-24T08:47:12.356Z,12.15
2023-10-24T08:49:41.961Z,12.10
2023-10-24T08:52:29.094Z,11.96
2023-10-24T08:55:00.602Z,12.06
2023-10-24T08:57:32.118Z,12.02
2023-10-24T09:00:01.624Z,12.07
2023-10-24T09:02:31.734Z,12.06
2023-10-24T09:05:02.105Z,12.06
2023-10-24T09:07:32.042Z,12.08
2023-10-24T09:10:00.450Z,12.03
2023-10-24T09:12:31.307Z,12.18
2023-10-24T09:15:00.706Z,12.05
2023-10-24T09:17:29.396Z,12.18
2023-10-24T09:19:58.459Z,12.16
2023-10-24T09:22:31.473Z,12.02
2023-10-24T09:25:03.181Z,12.07
2023-10-24T09:27:31.477Z,12.24
2023-10-24T09:29:59.787Z,12.10
2023-10-24T09:32:29.141Z,12.16
2023-10-24T09:34:57.473Z,12.08
2023-10-24T09:37:25.962Z,12.20
2023-10-24T09:39:58.413Z,12.17
2023-10-24T09:42:32.899Z,12.12
2023-10-24T09:45:05.852Z,12.05
2023-10-24T09:47:35.128Z,12.15
2023-10-24T09:50:06.518Z,12.05
2023-10-24T09:52:35.137Z,12.16
2023-10-24T09:55:04.412Z,12.17
2023-10-24T09:57:34.890Z,12.33
2023-10-24T10:00:05.106Z,12.21
2023-10-24T10:02:33.520Z,12.30
2023-10-24T10:05:02.160Z,12.13
2023-10-24T10:07:30.967Z,12.01
2023-10-24T10:10:01.199Z,12.26
2023-10-24T10:12:30.554Z,12.11
2023-10-24T10:15:13.121Z,12.08
2023-10-24T10:17:48.802Z,12.42
2023-10-24T10:20:32.728Z,12.15
2023-10-24T10:23:17.483Z,12.22
2023-10-24T10:25:57.240Z,12.22
2023-10-24T10:28:52.398Z,12.35
2023-10-24T10:32:37.493Z,12.45
2023-10-24T10:34:39.029Z,12.30
2023-10-24T10:37:08.101Z,12.33
2023-10-24T10:39:36.290Z,12.52
2023-10-24T10:42:04.621Z,12.25
2023-10-24T10:44:44.751Z,12.23
2023-10-24T10:47:17.473Z,12.43
2023-10-24T10:49:51.217Z,12.42
2023-10-24T10:52:45.979Z,12.41
2023-10-24T10:55:28.984Z,12.52
2023-10-24T10:58:05.113Z,12.42
2023-10-24T11:00:42.894Z,12.29
2023-10-24T11:03:29.534Z,12.54
2023-10-24T11:05:58.211Z,12.31
2023-10-24T11:08:26.640Z,12.32
2023-10-24T11:10:58.183Z,12.47
2023-10-24T11:13:41.875Z,12.46
2023-10-24T11:16:21.259Z,12.39
2023-10-24T11:18:56.118Z,12.63
2023-10-24T11:21:24.670Z,12.67
2023-10-24T11:23:53.309Z,12.57
2023-10-24T11:26:21.742Z,12.54
2023-10-24T11:28:50.129Z,12.74
2023-10-24T11:31:23.057Z,12.66
2023-10-24T11:33:52.020Z,12.62
2023-10-24T11:36:22.325Z,12.70
2023-10-24T11:38:50.595Z,12.63
2023-10-24T11:41:18.734Z,12.50
2023-10-24T11:43:49.625Z,12.57
2023-10-24T11:46:17.994Z,12.76
2023-10-24T11:48:46.253Z,12.65
2023-10-24T11:51:14.824Z,12.64
2023-10-24T11:53:46.136Z,12.62
2023-10-24T11:56:14.725Z,12.49
2023-10-24T11:58:44.135Z,12.77
2023-10-24T12:01:13.164Z,12.82
2023-10-24T12:03:49.019Z,12.67
2023-10-24T12:06:20.017Z,12.67
2023-10-24T12:08:50.124Z,12.69
2023-10-24T12:11:19.120Z,12.63
2023-10-24T12:13:48.323Z,12.56
2023-10-24T12:16:17.263Z,12.49
2023-10-24T12:18:45.543Z,12.66
2023-10-24T12:21:15.336Z,12.82
2023-10-24T12:23:43.619Z,13.07
2023-10-24T12:26:13.453Z,12.85
2023-10-24T12:28:44.326Z,13.15
2023-10-24T12:31:13.597Z,13.00
2023-10-24T12:33:42.120Z,13.04
2023-10-24T12:36:10.491Z,13.09
2023-10-24T12:38:39.965Z,13.10
2023-10-24T12:41:08.302Z,13.07
2023-10-24T12:43:38.116Z,13.18
2023-10-24T12:46:06.484Z,13.02
2023-10-24T12:48:40.313Z,13.05
2023-10-24T12:51:15.025Z,13.16
2023-10-24T12:53:43.276Z,13.02
2023-10-24T12:56:11.725Z,13.36
2023-10-24T12:58:41.514Z,13.35
2023-10-24T13:01:11.486Z,13.30
2023-10-24T13:03:40.009Z,13.38
2023-10-24T13:06:08.910Z,13.32
2023-10-24T13:08:37.176Z,13.41
2023-10-24T13:11:05.734Z,13.17
2023-10-24T13:13:34.083Z,13.14
2023-10-24T13:16:03.983Z,13.19
2023-10-24T13:18:32.510Z,13.52
2023-10-24T13:21:00.903Z,13.61
2023-10-24T13:23:29.459Z,13.70
2023-10-24T13:25:57.911Z,13.88
2023-10-24T13:28:26.588Z,14.00
2023-10-24T13:31:11.357Z,13.94
2023-10-24T13:34:20.475Z,14.01
2023-10-24T13:36:33.890Z,13.80
2023-10-24T13:39:02.638Z,13.81
2023-10-24T13:41:31.115Z,13.76
2023-10-24T13:44:00.025Z,13.80
2023-10-24T13:46:28.670Z,13.76
2023-10-24T13:48:59.268Z,13.77
2023-10-24T13:51:27.758Z,13.93
2023-10-24T13:53:57.143Z,13.80
2023-10-24T13:56:26.061Z,13.63
2023-10-24T13:58:54.874Z,13.83
2023-10-24T14:01:41.232Z,13.74
2023-10-24T14:04:13.271Z,13.96
2023-10-24T14:06:41.418Z,13.92
2023-10-24T14:09:09.605Z,13.95
2023-10-24T14:11:37.877Z,13.79
2023-10-24T14:14:06.206Z,13.81
2023-10-24T14:16:34.900Z,14.00
2023-10-24T14:19:03.139Z,13.82
2023-10-24T14:21:34.698Z,13.82
2023-10-24T14:24:02.785Z,13.92
2023-10-24T14:26:31.067Z,14.10
2023-10-24T14:28:59.330Z,14.06
2023-10-24T14:31:27.590Z,13.84
2023-10-24T14:33:57.984Z,14.10
2023-10-24T14:36:26.134Z,13.93
2023-10-24T14:38:56.058Z,13.87
2023-10-24T14:41:24.347Z,13.64
2023-10-24T14:43:52.563Z,13.55
2023-10-24T14:46:21.011Z,13.65
2023-10-24T14:48:48.607Z,13.37
2023-10-24T14:51:16.801Z,13.40
2023-10-24T14:53:45.136Z,13.28
2023-10-24T14:56:14.777Z,13.34
2023-10-24T14:58:43.004Z,13.57
2023-10-24T15:01:12.161Z,13.51
2023-10-24T15:03:41.325Z,13.60
2023-10-24T15:06:09.589Z,13.72
2023-10-24T15:08:37.740Z,13.69
2023-10-24T15:11:06.329Z,13.60
2023-10-24T15:13:36.491Z,13.64
2023-10-24T15:16:04.711Z,13.64
2023-10-24T15:18:35.396Z,13.49
2023-10-24T15:21:05.892Z,13.42
2023-10-24T15:23:34.124Z,13.30
2023-10-24T15:26:03.099Z,13.23
2023-10-24T15:28:31.504Z,13.26
2023-10-24T15:31:01.029Z,13.17
2023-10-24T15:33:29.130Z,13.40
2023-10-24T15:35:58.949Z,13.36
2023-10-24T15:38:28.457Z,13.26
2023-10-24T15:40:57.096Z,13.18
2023-10-24T15:43:25.622Z,13.28
2023-10-24T15:46:19.575Z,13.18
2023-10-24T15:48:48.156Z,13.20
2023-10-24T15:51:17.310Z,13.26
2023-10-24T15:53:45.472Z,12.94
2023-10-24T15:56:13.660Z,13.10
2023-10-24T15:58:42.512Z,13.17
2023-10-24T16:01:16.408Z,13.09
2023-10-24T16:03:45.301Z,12.97
2023-10-24T16:06:15.446Z,12.90
2023-10-24T16:08:43.566Z,12.95
2023-10-24T16:11:11.850Z,13.11
2023-10-24T16:13:40.032Z,13.04
2023-10-24T16:16:08.610Z,12.98
2023-10-24T16:18:38.286Z,12.78
2023-10-24T16:21:06.626Z,12.90
2023-10-24T16:23:34.943Z,12.97
2023-10-24T16:26:05.728Z,12.99
2023-10-24T16:28:34.104Z,12.89
2023-10-24T16:31:02.196Z,12.92
2023-10-24T16:33:30.620Z,12.85
2023-10-24T16:36:02.442Z,12.83
2023-10-24T16:38:32.790Z,12.85
2023-10-24T16:41:02.361Z,12.71
2023-10-24T16:43:31.869Z,12.85
2023-10-24T16:46:00.378Z,12.78
2023-10-24T16:48:29.592Z,12.76
2023-10-24T16:50:59.817Z,12.61
2023-10-24T16:53:28.383Z,12.72
2023-10-24T16:55:57.545Z,12.60
2023-10-24T16:58:26.524Z,12.66
2023-10-24T17:00:56.877Z,12.65
2023-10-24T17:03:25.316Z,12.60
2023-10-24T17:05:53.517Z,12.54
2023-10-24T17:08:23.017Z,12.48
2023-10-24T17:11:01.635Z,12.41
2023-10-24T17:13:29.887Z,12.46
2023-10-24T17:15:58.365Z,12.53
2023-10-24T17:18:26.579Z,12.58
2023-10-24T17:20:54.657Z,12.53
2023-10-24T17:23:29.138Z,12.53
2023-10-24T17:25:58.464Z,12.50
2023-10-24T17:28:27.422Z,12.51
2023-10-24T17:30:55.611Z,12.42
2023-10-24T17:33:23.799Z,12.43
2023-10-24T17:35:53.426Z,12.37
2023-10-24T17:38:21.592Z,12.43
2023-10-24T17:40:52.384Z,12.36
2023-10-24T17:43:20.691Z,12.31
2023-10-24T17:45:48.844Z,12.23
2023-10-24T17:48:17.099Z,12.31
2023-10-24T17:50:45.514Z,12.34
2023-10-24T17:53:13.700Z,12.30
2023-10-24T17:55:42.789Z,12.37
2023-10-24T17:58:12.266Z,12.34
2023-10-24T18:00:40.353Z,12.33
2023-10-24T18:03:08.458Z,12.23
2023-10-24T18:05:39.200Z,12.28
2023-10-24T18:08:07.714Z,12.25
2023-10-24T18:10:35.902Z,12.26
2023-10-24T18:13:04.006Z,12.21
2023-10-24T18:15:34.871Z,12.24
2023-10-24T18:18:03.626Z,12.22
2023-10-24T18:20:35.423Z,12.17
2023-10-24T18:23:04.538Z,12.24
2023-10-24T18:25:32.683Z,12.04
2023-10-24T18:28:00.711Z,12.22
2023-10-24T18:30:28.810Z,12.12
2023-10-24T18:32:58.672Z,12.14
2023-10-24T18:35:26.770Z,11.94
2023-10-24T18:37:54.848Z,12.03
2023-10-24T18:40:22.977Z,12.12
2023-10-24T18:42:56.156Z,11.95
2023-10-24T18:45:25.684Z,11.91
2023-10-24T18:47:53.970Z,12.04
2023-10-24T18:50:26.186Z,11.76
2023-10-24T18:52:54.814Z,11.98
2023-10-24T18:55:22.844Z,11.90
2023-10-24T18:57:50.995Z,11.90
2023-10-24T19:00:20.100Z,11.91
2023-10-24T19:05:19.854Z,11.87
2023-10-24T19:07:49.685Z,11.83
2023-10-24T19:10:18.364Z,11.53
2023-10-24T19:12:46.030Z,11.79
2023-10-24T19:15:14.949Z,11.73
2023-10-24T19:17:43.435Z,11.74
2023-10-24T19:20:12.165Z,11.73
2023-10-24T19:22:40.631Z,11.75
2023-10-24T19:25:13.497Z,11.70
2023-10-24T19:27:42.197Z,11.70
2023-10-24T19:30:11.144Z,11.71
2023-10-24T19:32:39.617Z,11.69
2023-10-24T19:35:09.893Z,11.69
2023-10-24T19:37:40.343Z,11.71
2023-10-24T19:40:12.099Z,11.60
2023-10-24T19:42:40.708Z,11.67
2023-10-24T19:45:10.597Z,11.52
2023-10-24T19:47:41.199Z,11.68
2023-10-24T19:50:10.407Z,11.74
2023-10-24T19:52:38.947Z,11.73
2023-10-24T19:55:15.891Z,11.69
2023-10-24T19:57:56.859Z,11.71
2023-10-24T20:00:25.941Z,11.66
2023-10-24T20:02:54.625Z,11.73
2023-10-24T20:05:23.440Z,11.70
2023-10-24T20:07:56.684Z,11.59
2023-10-24T20:11:34.648Z,11.80
2023-10-24T20:13:18.706Z,11.80
2023-10-24T20:15:47.780Z,11.74
2023-10-24T20:18:16.350Z,11.70
2023-10-24T20:20:45.026Z,11.74
2023-10-24T20:23:13.779Z,11.79
2023-10-24T20:25:42.710Z,11.69
2023-10-24T20:28:12.231Z,11.72
2023-10-24T20:30:41.828Z,11.71
2023-10-24T20:33:09.968Z,11.71
2023-10-24T20:35:39.485Z,11.69
2023-10-24T20:38:09.558Z,11.67
2023-10-24T20:40:38.506Z,11.62
2023-10-24T20:43:07.623Z,11.55
2023-10-24T20:45:39.162Z,11.55
2023-10-24T20:48:11.164Z,11.54
2023-10-24T20:50:42.573Z,11.55
2023-10-24T20:53:11.025Z,11.56
2023-10-24T20:55:40.845Z,11.52
2023-10-24T20:58:09.232Z,11.49
2023-10-24T21:00:38.533Z,11.59
2023-10-24T21:03:08.149Z,11.53
2023-10-24T21:05:37.172Z,11.54
2023-10-24T21:08:05.591Z,11.48
2023-10-24T21:10:36.545Z,11.56
2023-10-24T21:13:04.759Z,11.55
2023-10-24T21:15:33.776Z,11.49
2023-10-24T21:18:01.998Z,11.47
2023-10-24T21:20:31.601Z,11.39
2023-10-24T21:23:00.413Z,11.43
2023-10-24T21:25:30.779Z,11.41
2023-10-24T21:27:59.391Z,11.39
2023-10-24T21:30:28.845Z,11.43
2023-10-24T21:32:56.946Z,11.41
2023-10-24T21:35:26.272Z,11.34
2023-10-24T21:37:55.802Z,11.33
2023-10-24T21:40:25.232Z,11.12
2023-10-24T21:42:53.554Z,11.25
2023-10-24T21:45:24.842Z,11.20
2023-10-24T21:47:54.426Z,11.20
2023-10-24T21:50:22.704Z,11.18
2023-10-24T21:52:51.893Z,11.12
2023-10-24T21:55:21.548Z,11.17
2023-10-24T21:57:50.865Z,11.12
2023-10-24T22:00:25.481Z,11.10
2023-10-24T22:02:55.429Z,11.08
2023-10-24T22:05:25.323Z,11.06
2023-10-24T22:07:55.886Z,11.09
2023-10-24T22:10:25.498Z,11.14
2023-10-24T22:12:54.599Z,11.11
2023-10-24T22:15:23.539Z,11.17
2023-10-24T22:17:54.429Z,11.15
2023-10-24T22:20:23.320Z,11.12
2023-10-24T22:22:51.485Z,11.10
2023-10-24T22:25:19.758Z,11.10
2023-10-24T22:28:02.369Z,10.94
2023-10-24T22:30:32.943Z,11.10
2023-10-24T22:33:01.213Z,11.06
2023-10-24T22:35:29.326Z,11.00
2023-10-24T22:37:57.404Z,10.87
2023-10-24T22:40:25.401Z,10.78
2023-10-24T22:42:54.968Z,10.81
2023-10-24T22:45:23.062Z,10.79
2023-10-24T22:47:51.380Z,10.66
2023-10-24T22:50:21.991Z,10.78
2023-10-24T22:52:51.690Z,10.70
2023-10-24T22:55:20.134Z,10.76
2023-10-24T22:57:48.495Z,10.74
2023-10-24T23:00:18.686Z,10.70
2023-10-24T23:02:47.367Z,10.62
2023-10-24T23:05:16.096Z,10.61
2023-10-24T23:07:44.174Z,10.58
2023-10-24T23:10:12.498Z,10.45
2023-10-24T23:12:40.742Z,10.51
2023-10-24T23:15:09.919Z,10.46
2023-10-24T23:17:39.337Z,10.50
2023-10-24T23:20:09.246Z,10.51
2023-10-24T23:22:37.332Z,10.46
2023-10-24T23:25:06.003Z,10.45
2023-10-24T23:27:34.125Z,10.50
2023-10-24T23:30:02.189Z,10.49
2023-10-24T23:32:30.258Z,10.48
2023-10-24T23:34:59.692Z,10.34
2023-10-24T23:37:27.740Z,10.41
2023-10-24T23:39:55.793Z,10.42
2023-10-24T23:42:23.925Z,10.46
2023-10-24T23:44:51.962Z,10.42
2023-10-24T23:47:20.024Z,10.25
2023-10-24T23:49:48.058Z,10.33
2023-10-24T23:52:17.540Z,10.44
2023-10-24T23:54:45.831Z,10.45
2023-10-24T23:57:13.881Z,10.46
2023-10-24T23:59:42.241Z,10.44
